Time;durP1;ratioP1;P1;durP2;ratioP2;P2;SDS_P1;SDS_P2;PMS_P1;PMS_P2;Temp;Humidity;BMP_temperature;BMP_pressure;BME280_temperature;BME280_humidity;BME280_pressure;Samples;Min_cycle;Max_cycle;Signal;HPM_P1;HPM_P2
2020/12/12 00:01:00;;;;;;;;;;;;;;;3.15;96.20;91940.16;5095753;28;20007;-89
2020/12/12 00:03:26;;;;;;;;;;;;;;;3.17;97.27;91932.38;5095979;28;20002;-90
2020/12/12 00:05:53;;;;;;;;;;;;;;;3.18;97.22;91929.63;5094393;28;19924;-89
2020/12/12 00:08:19;;;;;;;;;;;;;;;3.22;97.52;91930.03;5095663;28;19978;-90
2020/12/12 00:10:46;;;;;;;;;;;;;;;3.28;97.55;91924.16;5095514;28;19933;-89
2020/12/12 00:13:14;;;;;;;;;;;;;;;3.25;96.38;91924.56;5095317;28;19927;-90
2020/12/12 00:15:41;;;;;;;;;;;;;;;3.29;96.83;91920.63;5095515;28;19928;-89
2020/12/12 00:18:07;;;;;;;;;;;;;;;3.28;96.51;91928.47;5095658;28;19930;-88
2020/12/12 00:20:34;;;;;;;;;;;;;;;3.26;96.20;91925.31;5094925;28;19928;-89
2020/12/12 00:23:02;;;;;;;;;;;;;;;3.26;96.84;91910.09;5096222;28;19924;-90
2020/12/12 00:25:29;;;;;;;;;;;;;;;3.26;97.26;91913.44;5094590;28;20407;-90
2020/12/12 00:27:55;;;;;;;;;;;;;;;3.29;97.39;91917.34;5095485;28;20487;-89
2020/12/12 00:30:21;;;;;;;;;;;;;;;3.33;98.17;91910.88;5095268;28;19924;-88
2020/12/12 00:32:48;;;;;;;;;;;;;;;3.40;97.80;91909.13;5095068;28;19974;-89
2020/12/12 00:35:14;;;;;;;;;;;;;;;3.33;97.83;91910.88;5094745;28;19924;-89
2020/12/12 00:37:40;;;;;;;;;;;;;;;3.40;97.82;91911.66;5093930;28;19972;-90
2020/12/12 00:40:06;;;;;;;;;;;;;;;3.44;97.86;91906.97;5095158;28;20409;-89
2020/12/12 00:42:33;;;;;;;;;;;;;;;3.27;97.56;91914.19;5095125;28;20381;-89
2020/12/12 00:44:59;;;;;;;;;;;;;;;3.34;97.37;91908.13;5095038;28;19975;-89
2020/12/12 00:47:25;;;;;;;;;;;;;;;3.41;97.47;91904.81;5094719;28;20420;-89
2020/12/12 00:49:52;;;;;;;;;;;;;;;3.44;96.94;91902.69;5095089;28;19932;-89
2020/12/12 00:52:18;;;;;;;;;;;;;;;3.46;96.50;91905.00;5094682;28;19928;-89
2020/12/12 00:54:59;;;;;;;;;;;;;;;3.45;96.75;91901.69;5094875;28;19971;-89
2020/12/12 00:57:25;;;;;;;;;;;;;;;3.52;97.04;91904.19;5093825;28;19975;-91
2020/12/12 00:59:51;;;;;;;;;;;;;;;3.56;96.83;91902.06;5094279;28;19934;-89
2020/12/12 01:05:23;;;;;;;;;;;;;;;3.56;96.40;91892.66;5094993;28;19943;-89
2020/12/12 01:08:04;;;;;;;;;;;;;;;3.60;96.50;91890.50;5095430;28;19959;-90
2020/12/12 01:10:31;;;;;;;;;;;;;;;3.65;97.08;91892.47;5094204;28;19986;-89
2020/12/12 01:13:13;;;;;;;;;;;;;;;3.38;96.95;91887.44;5095658;28;19924;-89
2020/12/12 01:15:39;;;;;;;;;;;;;;;2.99;100.00;91880.47;5094072;28;19931;-89
2020/12/12 01:18:05;;;;;;;;;;;;;;;3.18;99.82;91883.97;5094128;28;19924;-89
2020/12/12 01:20:32;;;;;;;;;;;;;;;3.34;99.76;91872.59;5093290;28;19975;-89
2020/12/12 01:26:03;;;;;;;;;;;;;;;3.57;98.68;91870.59;5094470;28;20297;-90
2020/12/12 01:28:29;;;;;;;;;;;;;;;3.57;99.00;91868.84;5094066;28;20366;-89
2020/12/12 01:30:55;;;;;;;;;;;;;;;3.54;98.69;91871.78;5094265;28;19930;-90
2020/12/12 01:33:21;;;;;;;;;;;;;;;3.30;99.45;91858.78;5093233;28;19973;-90
2020/12/12 01:35:48;;;;;;;;;;;;;;;3.00;100.00;91855.88;5092765;28;19925;-89
2020/12/12 01:41:18;;;;;;;;;;;;;;;3.25;100.00;91845.88;5094305;28;19927;-89
2020/12/12 01:43:49;;;;;;;;;;;;;;;3.32;100.00;91841.56;5093645;28;19931;-90
2020/12/12 01:46:15;;;;;;;;;;;;;;;3.48;100.00;91837.81;5093508;28;20271;-91
2020/12/12 01:48:41;;;;;;;;;;;;;;;3.21;100.00;91837.88;5092881;28;20457;-89
2020/12/12 01:51:08;;;;;;;;;;;;;;;3.41;100.00;91837.06;5094029;28;19930;-89
2020/12/12 01:53:34;;;;;;;;;;;;;;;3.59;100.00;91833.09;5094106;28;20009;-89
2020/12/12 01:56:00;;;;;;;;;;;;;;;3.68;99.57;91826.81;5094052;28;19930;-90
2020/12/12 01:58:28;;;;;;;;;;;;;;;3.54;99.22;91827.84;5093164;28;19924;-90
2020/12/12 02:00:54;;;;;;;;;;;;;;;3.55;99.24;91825.09;5092184;28;19931;-91
2020/12/12 02:03:21;;;;;;;;;;;;;;;3.19;100.00;91827.16;5092764;28;19967;-91
2020/12/12 02:05:47;;;;;;;;;;;;;;;3.03;100.00;91825.03;5092418;28;19970;-90
2020/12/12 02:08:15;;;;;;;;;;;;;;;2.91;100.00;91823.09;5092537;28;19967;-90
2020/12/12 02:10:43;;;;;;;;;;;;;;;2.74;100.00;91817.63;5092143;28;19964;-90
2020/12/12 02:13:09;;;;;;;;;;;;;;;2.85;100.00;91818.03;5092478;28;19970;-90
2020/12/12 02:15:36;;;;;;;;;;;;;;;3.00;100.00;91812.75;5092144;28;19931;-91
2020/12/12 02:18:03;;;;;;;;;;;;;;;3.17;100.00;91813.09;5091632;28;19924;-91
2020/12/12 02:20:29;;;;;;;;;;;;;;;3.30;100.00;91795.31;5091636;28;19924;-91
2020/12/12 02:22:56;;;;;;;;;;;;;;;3.44;100.00;91795.25;5091292;28;19930;-91
2020/12/12 02:25:22;;;;;;;;;;;;;;;3.53;100.00;91803.44;5091369;28;20021;-91
2020/12/12 02:27:51;;;;;;;;;;;;;;;3.66;100.00;91798.28;5091383;28;19924;-91
2020/12/12 02:30:17;;;;;;;;;;;;;;;3.76;100.00;91797.09;5091238;28;19924;-91
2020/12/12 02:32:43;;;;;;;;;;;;;;;3.84;100.00;91796.88;5092977;28;19928;-91
2020/12/12 02:35:09;;;;;;;;;;;;;;;3.94;99.30;91796.41;5095244;28;20302;-91
2020/12/12 02:37:36;;;;;;;;;;;;;;;4.01;99.54;91794.59;5094696;28;19931;-91
2020/12/12 02:40:03;;;;;;;;;;;;;;;4.04;99.30;91789.13;5094957;28;19928;-90
2020/12/12 02:42:29;;;;;;;;;;;;;;;4.08;98.54;91782.63;5095008;28;20408;-91
2020/12/12 02:44:55;;;;;;;;;;;;;;;4.09;98.38;91781.66;5094744;28;19979;-92
2020/12/12 02:47:22;;;;;;;;;;;;;;;4.13;98.22;91787.88;5094786;28;19966;-92
2020/12/12 02:50:00;;;;;;;;;;;;;;;4.15;98.24;91782.59;5094548;28;19934;-90
2020/12/12 02:52:26;;;;;;;;;;;;;;;4.19;98.18;91780.41;5094804;28;20448;-90
2020/12/12 02:54:52;;;;;;;;;;;;;;;4.19;98.17;91773.59;5094663;28;19931;-91
2020/12/12 02:57:19;;;;;;;;;;;;;;;4.21;97.99;91786.84;5094549;28;19930;-91
2020/12/12 02:59:45;;;;;;;;;;;;;;;4.16;98.19;91783.38;5094276;28;19931;-93
2020/12/12 03:02:11;;;;;;;;;;;;;;;4.14;98.29;91781.84;5094605;28;19924;-91
2020/12/12 03:04:37;;;;;;;;;;;;;;;4.19;97.95;91777.88;5094433;28;19925;-91
2020/12/12 03:07:03;;;;;;;;;;;;;;;4.20;98.21;91770.06;5094645;28;19924;-92
2020/12/12 03:09:30;;;;;;;;;;;;;;;4.22;98.64;91775.69;5094224;28;19924;-92
2020/12/12 03:11:56;;;;;;;;;;;;;;;4.25;98.33;91770.22;5094310;28;19963;-92
2020/12/12 03:14:23;;;;;;;;;;;;;;;4.27;98.41;91764.94;5094019;28;20396;-91
2020/12/12 03:16:49;;;;;;;;;;;;;;;4.30;98.00;91764.50;5094032;28;19935;-92
2020/12/12 03:19:15;;;;;;;;;;;;;;;4.29;97.97;91765.50;5094101;28;19986;-92
2020/12/12 03:21:41;;;;;;;;;;;;;;;4.24;98.04;91761.03;5094145;28;19924;-93
2020/12/12 03:24:07;;;;;;;;;;;;;;;4.19;98.50;91757.56;5093942;28;20420;-91
2020/12/12 03:26:33;;;;;;;;;;;;;;;4.14;98.97;91755.63;5093635;28;19935;-92
2020/12/12 03:28:59;;;;;;;;;;;;;;;4.13;99.22;91756.63;5093857;28;19935;-91
2020/12/12 03:31:26;;;;;;;;;;;;;;;4.12;99.82;91748.22;5093775;28;19978;-91
2020/12/12 03:33:52;;;;;;;;;;;;;;;4.14;99.97;91751.34;5093959;28;20285;-91
2020/12/12 03:36:19;;;;;;;;;;;;;;;4.19;100.00;91744.84;5093898;28;19971;-92
2020/12/12 03:38:45;;;;;;;;;;;;;;;4.21;99.63;91745.44;5093595;28;19990;-91
2020/12/12 03:41:11;;;;;;;;;;;;;;;4.22;99.86;91736.81;5093570;28;19974;-92
2020/12/12 03:43:37;;;;;;;;;;;;;;;4.23;99.53;91740.91;5093380;28;20013;-92
2020/12/12 03:46:03;;;;;;;;;;;;;;;4.23;99.53;91738.38;5093631;28;19971;-92
2020/12/12 03:48:30;;;;;;;;;;;;;;;4.12;100.00;91740.59;5093642;28;19930;-92
2020/12/12 03:50:56;;;;;;;;;;;;;;;4.15;100.00;91729.22;5093323;28;19963;-93
2020/12/12 03:53:22;;;;;;;;;;;;;;;4.15;100.00;91726.69;5093453;28;20375;-92
2020/12/12 03:55:48;;;;;;;;;;;;;;;4.13;100.00;91728.66;5093313;28;19924;-93
2020/12/12 03:58:14;;;;;;;;;;;;;;;4.01;100.00;91726.78;5093128;28;19932;-92
2020/12/12 04:00:41;;;;;;;;;;;;;;;3.95;100.00;91719.22;5093498;28;20309;-92
2020/12/12 04:03:07;;;;;;;;;;;;;;;3.81;100.00;91716.78;5093137;28;19924;-93
2020/12/12 04:05:34;;;;;;;;;;;;;;;3.83;100.00;91719.88;5093141;28;19978;-92
2020/12/12 04:08:00;;;;;;;;;;;;;;;3.87;100.00;91715.94;5093232;28;19978;-93
2020/12/12 04:10:26;;;;;;;;;;;;;;;3.81;100.00;91719.31;5092976;28;19959;-91
2020/12/12 04:12:52;;;;;;;;;;;;;;;3.57;100.00;91715.72;5093081;28;19924;-92
2020/12/12 04:15:18;;;;;;;;;;;;;;;3.24;100.00;91706.50;5093302;28;19946;-93
2020/12/12 04:17:44;;;;;;;;;;;;;;;3.15;100.00;91706.72;5093244;28;20382;-92
2020/12/12 04:20:10;;;;;;;;;;;;;;;2.96;100.00;91707.59;5092840;28;19971;-91
2020/12/12 04:22:37;;;;;;;;;;;;;;;2.93;100.00;91703.69;5093063;28;19928;-92
2020/12/12 04:25:03;;;;;;;;;;;;;;;2.93;100.00;91701.16;5092847;28;19924;-91
2020/12/12 04:27:32;;;;;;;;;;;;;;;2.96;100.00;91699.97;5093883;28;19928;-91
2020/12/12 04:29:58;;;;;;;;;;;;;;;3.13;100.00;91697.75;5092795;28;19970;-92
2020/12/12 04:32:24;;;;;;;;;;;;;;;3.33;100.00;91693.38;5092778;28;19924;-92
2020/12/12 04:34:51;;;;;;;;;;;;;;;3.49;100.00;91691.34;5092798;28;19968;-91
2020/12/12 04:37:17;;;;;;;;;;;;;;;3.66;100.00;91684.03;5092292;28;19924;-92
2020/12/12 04:39:44;;;;;;;;;;;;;;;3.71;100.00;91685.97;5093003;28;19962;-93
2020/12/12 04:42:12;;;;;;;;;;;;;;;3.78;100.00;91686.69;5092368;28;19928;-92
2020/12/12 04:44:39;;;;;;;;;;;;;;;3.90;100.00;91680.94;5092433;28;19971;-91
2020/12/12 04:47:06;;;;;;;;;;;;;;;3.93;100.00;91673.69;5092262;28;19928;-92
2020/12/12 04:49:33;;;;;;;;;;;;;;;3.98;100.00;91673.09;5092309;28;19924;-92
2020/12/12 04:52:02;;;;;;;;;;;;;;;3.86;100.00;91672.97;5092868;28;19973;-91
2020/12/12 04:54:31;;;;;;;;;;;;;;;3.77;100.00;91672.44;5099621;28;19924;-91
2020/12/12 04:56:58;;;;;;;;;;;;;;;3.71;100.00;91666.41;5094471;28;19994;-92
2020/12/12 04:59:26;;;;;;;;;;;;;;;3.48;100.00;91665.19;5094259;28;19928;-91
2020/12/12 05:01:53;;;;;;;;;;;;;;;3.59;100.00;91668.06;5093083;28;20338;-92
2020/12/12 05:04:20;;;;;;;;;;;;;;;3.51;100.00;91664.00;5092869;28;19924;-92
2020/12/12 05:06:46;;;;;;;;;;;;;;;3.64;100.00;91665.69;5092212;28;19928;-92
2020/12/12 05:09:12;;;;;;;;;;;;;;;3.80;100.00;91659.31;5092833;28;19930;-91
2020/12/12 05:11:38;;;;;;;;;;;;;;;3.97;100.00;91658.81;5091999;28;20404;-93
2020/12/12 05:14:09;;;;;;;;;;;;;;;3.99;100.00;91651.75;5092020;28;19924;-93
2020/12/12 05:16:35;;;;;;;;;;;;;;;3.93;100.00;91650.81;5090864;28;19928;-92
2020/12/12 05:19:02;;;;;;;;;;;;;;;3.93;100.00;91643.19;5091753;28;20420;-92
2020/12/12 05:21:28;;;;;;;;;;;;;;;3.40;100.00;91642.59;5091903;28;19935;-92
2020/12/12 05:23:55;;;;;;;;;;;;;;;3.44;100.00;91645.50;5088442;28;19963;-91
2020/12/12 05:26:21;;;;;;;;;;;;;;;3.50;100.00;91638.81;5077028;28;20009;-92
2020/12/12 05:28:47;;;;;;;;;;;;;;;3.62;100.00;91639.72;5088274;28;19927;-93
2020/12/12 05:31:15;;;;;;;;;;;;;;;3.60;100.00;91642.47;5097636;28;19924;-92
2020/12/12 05:33:41;;;;;;;;;;;;;;;3.60;100.00;91637.38;5110069;28;19963;-92
2020/12/12 05:36:08;;;;;;;;;;;;;;;3.41;100.00;91644.16;5105456;28;19924;-91
2020/12/12 05:38:34;;;;;;;;;;;;;;;3.37;100.00;91644.75;5111990;28;20305;-91
2020/12/12 05:41:00;;;;;;;;;;;;;;;3.32;100.00;91642.81;5112047;28;20010;-93
2020/12/12 05:43:32;;;;;;;;;;;;;;;3.26;100.00;91646.97;5111296;28;19924;-91
2020/12/12 05:46:00;;;;;;;;;;;;;;;3.40;100.00;91646.88;5112024;28;20342;-91
2020/12/12 05:48:27;;;;;;;;;;;;;;;3.32;100.00;91645.34;5111712;28;20293;-90
2020/12/12 05:50:54;;;;;;;;;;;;;;;3.37;100.00;91643.00;5112076;28;20289;-91
2020/12/12 05:53:20;;;;;;;;;;;;;;;3.23;100.00;91644.06;5112101;28;19928;-91
2020/12/12 05:55:46;;;;;;;;;;;;;;;3.17;100.00;91638.03;5112135;28;19924;-91
2020/12/12 05:58:14;;;;;;;;;;;;;;;3.15;100.00;91642.53;5111970;28;19923;-91
2020/12/12 06:00:41;;;;;;;;;;;;;;;3.17;100.00;91638.03;5096296;28;19924;-90
2020/12/12 06:03:11;;;;;;;;;;;;;;;3.03;100.00;91647.47;5091397;28;19950;-91
2020/12/12 06:05:46;;;;;;;;;;;;;;;3.07;100.00;91636.69;5091996;28;19924;-91
2020/12/12 06:08:13;;;;;;;;;;;;;;;2.96;100.00;91642.41;5095650;28;19924;-89
2020/12/12 06:10:43;;;;;;;;;;;;;;;3.05;100.00;91641.19;5095397;28;19959;-90
2020/12/12 06:13:09;;;;;;;;;;;;;;;2.93;100.00;91640.28;5095499;28;19924;-92
2020/12/12 06:15:36;;;;;;;;;;;;;;;2.97;100.00;91641.44;5095338;28;20412;-91
2020/12/12 06:18:09;;;;;;;;;;;;;;;2.95;100.00;91640.84;5095196;28;19971;-92
2020/12/12 06:20:38;;;;;;;;;;;;;;;2.68;100.00;91643.47;5112530;28;19982;-92
2020/12/12 06:23:06;;;;;;;;;;;;;;;2.70;100.00;91638.22;5115666;28;20294;-91
2020/12/12 06:25:32;;;;;;;;;;;;;;;2.87;100.00;91638.56;5115474;28;19928;-91
2020/12/12 06:27:58;;;;;;;;;;;;;;;2.88;100.00;91638.34;5115600;28;19928;-92
2020/12/12 06:30:26;;;;;;;;;;;;;;;3.04;100.00;91638.88;5115364;28;19986;-92
2020/12/12 06:32:58;;;;;;;;;;;;;;;3.15;100.00;91645.84;5115562;28;19953;-91
2020/12/12 06:35:30;;;;;;;;;;;;;;;3.20;100.00;91648.53;5080234;28;20356;-91
2020/12/12 06:37:56;;;;;;;;;;;;;;;3.16;100.00;91634.69;5094751;28;19928;-91
2020/12/12 06:40:39;;;;;;;;;;;;;;;3.20;100.00;91638.41;5094924;28;19924;-90
2020/12/12 06:43:25;;;;;;;;;;;;;;;3.21;100.00;91637.41;5095293;28;19966;-90
2020/12/12 06:45:51;;;;;;;;;;;;;;;3.13;100.00;91645.28;5094816;28;19977;-91
2020/12/12 06:48:22;;;;;;;;;;;;;;;2.86;100.00;91642.84;5094674;28;20008;-92
2020/12/12 06:50:48;;;;;;;;;;;;;;;2.79;100.00;91644.63;5094721;28;20355;-92
2020/12/12 06:53:18;;;;;;;;;;;;;;;2.82;100.00;91640.91;5095126;28;20282;-93
2020/12/12 06:55:45;;;;;;;;;;;;;;;2.96;100.00;91644.19;5094524;28;19935;-93
2020/12/12 06:58:23;;;;;;;;;;;;;;;2.91;100.00;91642.22;5094738;28;19971;-91
2020/12/12 07:00:49;;;;;;;;;;;;;;;3.02;100.00;91649.19;5094517;28;19928;-91
2020/12/12 07:03:20;;;;;;;;;;;;;;;3.15;100.00;91645.84;5094394;28;19930;-91
2020/12/12 07:05:47;;;;;;;;;;;;;;;3.16;100.00;91649.16;5094280;28;19979;-92
2020/12/12 07:08:13;;;;;;;;;;;;;;;3.38;100.00;91651.41;5094587;28;19924;-91
2020/12/12 07:10:40;;;;;;;;;;;;;;;3.39;100.00;91647.88;5094508;28;19928;-91
2020/12/12 07:13:08;;;;;;;;;;;;;;;3.52;100.00;91645.22;5094167;28;19975;-91
2020/12/12 07:15:36;;;;;;;;;;;;;;;3.47;100.00;91647.59;5094148;28;20006;-91
2020/12/12 07:18:03;;;;;;;;;;;;;;;3.56;100.00;91641.31;5093069;28;19963;-92
2020/12/12 07:20:32;;;;;;;;;;;;;;;3.56;100.00;91640.56;5110489;28;19976;-92
2020/12/12 07:23:00;;;;;;;;;;;;;;;3.35;100.00;91637.34;5114540;28;19923;-90
2020/12/12 07:25:26;;;;;;;;;;;;;;;3.32;100.00;91640.28;5114481;28;19930;-90
2020/12/12 07:27:52;;;;;;;;;;;;;;;3.34;100.00;91638.34;5103615;28;19930;-92
2020/12/12 07:30:19;;;;;;;;;;;;;;;3.44;100.00;91642.97;5093945;28;20390;-92
2020/12/12 07:32:45;;;;;;;;;;;;;;;3.61;100.00;91643.22;5093828;28;19978;-90
2020/12/12 07:35:12;;;;;;;;;;;;;;;3.61;100.00;91641.47;5093720;28;20400;-90
2020/12/12 07:37:38;;;;;;;;;;;;;;;3.51;100.00;91643.69;5094013;28;19972;-91
2020/12/12 07:40:04;;;;;;;;;;;;;;;3.63;100.00;91638.75;5093686;28;19924;-91
2020/12/12 07:42:32;;;;;;;;;;;;;;;3.77;100.00;91641.97;5093755;28;20401;-91
2020/12/12 07:45:07;;;;;;;;;;;;;;;3.81;100.00;91644.84;5093534;28;19928;-93
2020/12/12 07:47:34;;;;;;;;;;;;;;;3.85;100.00;91641.69;5076097;28;19924;-92
2020/12/12 07:50:01;;;;;;;;;;;;;;;3.79;100.00;91634.13;5073609;28;19928;-92
2020/12/12 07:52:27;;;;;;;;;;;;;;;3.73;100.00;91641.59;5073254;28;19924;-93
2020/12/12 07:55:00;;;;;;;;;;;;;;;3.50;100.00;91641.34;5073381;28;19958;-94
2020/12/12 07:57:26;;;;;;;;;;;;;;;3.40;100.00;91642.59;5073254;28;20283;-94
2020/12/12 07:59:52;;;;;;;;;;;;;;;3.21;100.00;91639.19;5079438;28;19924;-92
2020/12/12 08:02:19;;;;;;;;;;;;;;;3.21;100.00;91641.72;5093447;28;19967;-95
2020/12/12 08:04:46;;;;;;;;;;;;;;;3.37;100.00;91643.00;5093540;28;19931;-93
2020/12/12 08:07:12;;;;;;;;;;;;;;;3.37;100.00;91640.44;5093219;28;19982;-92
2020/12/12 08:09:46;;;;;;;;;;;;;;;3.28;100.00;91644.22;5090995;28;19924;-93
2020/12/12 08:12:14;;;;;;;;;;;;;;;3.34;100.00;91638.34;5092997;28;20409;-94
2020/12/12 08:14:46;;;;;;;;;;;;;;;3.41;100.00;91641.59;5093050;28;19935;-92
2020/12/12 08:17:12;;;;;;;;;;;;;;;3.56;100.00;91638.78;5092978;28;19924;-92
2020/12/12 08:19:46;;;;;;;;;;;;;;;3.72;100.00;91644.34;5101832;28;20383;-93
2020/12/12 08:23:54;;;;;;;;;;;;;;;3.84;100.00;91636.84;5069089;27;10938;-90
2020/12/12 08:26:21;;;;;;;;;;;;;;;3.92;100.00;91644.19;5069735;28;1102;-92
2020/12/12 08:31:09;;;;;;;;;;;;;;;4.11;100.00;91650.09;5147712;27;19967;-93
2020/12/12 08:33:35;;;;;;;;;;;;;;;4.14;100.00;91644.59;5150834;27;19962;-94
2020/12/12 08:36:09;;;;;;;;;;;;;;;4.26;100.00;91647.22;5145083;27;19923;-95
2020/12/12 08:38:37;;;;;;;;;;;;;;;4.05;100.00;91648.38;5150536;27;20369;-94
2020/12/12 08:41:10;;;;;;;;;;;;;;;4.10;100.00;91652.84;5151103;27;19968;-95
2020/12/12 08:43:36;;;;;;;;;;;;;;;4.15;100.00;91655.53;5150063;27;20010;-94
2020/12/12 08:46:03;;;;;;;;;;;;;;;4.22;100.00;91648.63;5143664;27;19931;-95
2020/12/12 08:48:34;;;;;;;;;;;;;;;4.43;100.00;91644.13;5146527;27;19927;-96
2020/12/12 08:51:01;;;;;;;;;;;;;;;4.52;100.00;91647.97;5150047;27;19972;-95
2020/12/12 08:53:29;;;;;;;;;;;;;;;4.63;100.00;91638.84;5150431;27;19964;-94
2020/12/12 08:56:03;;;;;;;;;;;;;;;4.81;100.00;91644.91;5150784;27;19970;-93
2020/12/12 08:58:47;;;;;;;;;;;;;;;4.93;100.00;91648.31;5150330;27;19929;-95
2020/12/12 09:01:15;;;;;;;;;;;;;;;5.05;98.36;91650.91;5150299;27;19963;-92
2020/12/12 09:04:02;;;;;;;;;;;;;;;5.16;98.19;91646.88;5151013;27;19930;-95
2020/12/12 09:06:30;;;;;;;;;;;;;;;4.96;96.45;91642.03;5143358;27;19923;-93
2020/12/12 09:09:04;;;;;;;;;;;;;;;4.97;96.83;91637.69;5150937;27;20385;-93
2020/12/12 09:11:30;;;;;;;;;;;;;;;4.94;97.92;91634.59;5150599;27;19930;-93
2020/12/12 09:13:56;;;;;;;;;;;;;;;4.92;96.94;91636.56;5150782;27;19934;-92
2020/12/12 09:16:24;;;;;;;;;;;;;;;4.85;97.41;91633.34;5150119;27;19975;-93
2020/12/12 09:18:50;;;;;;;;;;;;;;;4.70;99.53;91623.53;5139711;27;19946;-93
2020/12/12 09:21:17;;;;;;;;;;;;;;;4.38;100.00;91624.44;5134919;27;19969;-94
2020/12/12 09:23:44;;;;;;;;;;;;;;;4.38;100.00;91621.09;5129123;27;20297;-93
2020/12/12 09:26:10;;;;;;;;;;;;;;;4.43;99.66;91623.03;5128764;28;20339;-93
2020/12/12 09:28:36;;;;;;;;;;;;;;;4.15;100.00;91625.03;5128687;28;20421;-93
2020/12/12 09:31:03;;;;;;;;;;;;;;;4.29;100.00;91623.16;5129215;27;19970;-92
2020/12/12 09:33:29;;;;;;;;;;;;;;;4.48;100.00;91618.84;5130828;27;20374;-92
2020/12/12 09:35:55;;;;;;;;;;;;;;;4.68;100.00;91617.88;5136566;27;19931;-93
2020/12/12 09:38:21;;;;;;;;;;;;;;;4.84;100.00;91616.50;5128561;28;20304;-92
2020/12/12 09:40:49;;;;;;;;;;;;;;;4.99;98.63;91618.69;5123797;28;19923;-92
2020/12/12 09:43:16;;;;;;;;;;;;;;;4.86;97.33;91627.25;5114822;28;19963;-92
2020/12/12 09:45:42;;;;;;;;;;;;;;;4.86;98.35;91622.16;5114733;28;20434;-92
2020/12/12 09:48:08;;;;;;;;;;;;;;;4.63;99.10;91622.81;5114973;28;19970;-92
2020/12/12 09:50:35;;;;;;;;;;;;;;;4.66;99.72;91614.75;5114550;28;19930;-92
2020/12/12 09:53:01;;;;;;;;;;;;;;;4.74;99.58;91611.94;5114536;28;19924;-92
2020/12/12 09:55:27;;;;;;;;;;;;;;;4.80;100.00;91607.75;5132190;27;20274;-91
2020/12/12 09:57:54;;;;;;;;;;;;;;;4.86;100.00;91603.59;5135179;27;19923;-92
2020/12/12 10:00:20;;;;;;;;;;;;;;;4.63;98.35;91608.31;5133284;27;19937;-94
2020/12/12 10:02:46;;;;;;;;;;;;;;;4.64;100.00;91609.88;5135193;27;20393;-92
2020/12/12 10:05:12;;;;;;;;;;;;;;;4.77;100.00;91608.94;5134644;27;19970;-93
2020/12/12 10:07:38;;;;;;;;;;;;;;;4.75;99.80;91605.84;5134830;27;20416;-92
2020/12/12 10:10:05;;;;;;;;;;;;;;;4.72;98.10;91610.59;5134743;27;20392;-91
2020/12/12 10:12:31;;;;;;;;;;;;;;;4.84;99.57;91608.09;5134706;27;19928;-92
2020/12/12 10:14:58;;;;;;;;;;;;;;;4.83;99.63;91599.69;5134587;27;19923;-93
2020/12/12 10:17:24;;;;;;;;;;;;;;;4.92;98.19;91608.56;5134602;27;20381;-91
2020/12/12 10:19:50;;;;;;;;;;;;;;;4.91;98.54;91606.28;5124092;27;20028;-91
2020/12/12 10:22:16;;;;;;;;;;;;;;;4.81;98.30;91607.53;5114074;28;19923;-91
2020/12/12 10:24:42;;;;;;;;;;;;;;;5.01;100.00;91604.00;5129715;27;19933;-92
2020/12/12 10:27:08;;;;;;;;;;;;;;;4.85;100.00;91600.25;5134411;27;19923;-93
2020/12/12 10:29:34;;;;;;;;;;;;;;;4.95;100.00;91604.81;5134260;27;19924;-94
2020/12/12 10:32:03;;;;;;;;;;;;;;;5.25;100.00;91596.44;5134751;27;20337;-92
2020/12/12 10:34:29;;;;;;;;;;;;;;;5.48;100.00;91602.59;5134447;27;19979;-92
2020/12/12 10:36:55;;;;;;;;;;;;;;;5.53;96.43;91599.38;5134649;27;19970;-91
2020/12/12 10:39:27;;;;;;;;;;;;;;;5.50;98.26;91598.03;5134178;27;19924;-93
2020/12/12 10:41:53;;;;;;;;;;;;;;;5.45;95.08;91593.59;5134300;27;20040;-92
2020/12/12 10:44:19;;;;;;;;;;;;;;;5.21;96.53;91601.19;5135131;27;19927;-92
2020/12/12 10:46:45;;;;;;;;;;;;;;;5.06;97.50;91593.16;5135585;27;19937;-91
2020/12/12 10:49:12;;;;;;;;;;;;;;;4.90;98.57;91585.13;5135012;27;19923;-92
2020/12/12 10:51:45;;;;;;;;;;;;;;;4.84;97.76;91585.19;5133762;27;19928;-92
2020/12/12 10:54:11;;;;;;;;;;;;;;;4.94;99.10;91588.81;5133338;27;20389;-91
2020/12/12 10:56:37;;;;;;;;;;;;;;;4.90;97.52;91585.13;5134063;27;19923;-91
2020/12/12 10:59:03;;;;;;;;;;;;;;;4.90;99.37;91587.66;5134051;27;19927;-92
2020/12/12 11:01:30;;;;;;;;;;;;;;;4.74;97.72;91583.97;5133728;27;19928;-90
2020/12/12 11:03:56;;;;;;;;;;;;;;;4.80;98.98;91583.09;5134057;27;19924;-90
2020/12/12 11:06:23;;;;;;;;;;;;;;;4.85;99.14;91595.16;5134371;27;19958;-90
2020/12/12 11:08:49;;;;;;;;;;;;;;;4.81;98.88;91587.19;5133839;27;20385;-90
2020/12/12 11:11:15;;;;;;;;;;;;;;;4.82;98.76;91580.34;5133851;27;19924;-91
2020/12/12 11:13:41;;;;;;;;;;;;;;;4.43;98.27;91583.13;5133766;27;19970;-89
2020/12/12 11:16:07;;;;;;;;;;;;;;;4.22;100.00;91585.09;5134416;27;20042;-91
2020/12/12 11:18:33;;;;;;;;;;;;;;;4.30;100.00;91589.13;5134297;27;19924;-90
2020/12/12 11:20:59;;;;;;;;;;;;;;;4.36;100.00;91582.41;5112950;28;19924;-89
2020/12/12 11:23:28;;;;;;;;;;;;;;;4.39;100.00;91587.06;5113046;28;19927;-90
2020/12/12 11:25:54;;;;;;;;;;;;;;;4.32;100.00;91584.63;5112714;28;19928;-91
2020/12/12 11:28:20;;;;;;;;;;;;;;;4.19;100.00;91587.28;5113187;28;20297;-90
2020/12/12 11:30:47;;;;;;;;;;;;;;;4.19;100.00;91577.09;5113282;28;19932;-90
2020/12/12 11:33:13;;;;;;;;;;;;;;;4.20;100.00;91586.28;5113368;28;19968;-89
2020/12/12 11:35:45;;;;;;;;;;;;;;;4.09;100.00;91583.47;5113168;28;20011;-90
2020/12/12 11:38:20;;;;;;;;;;;;;;;4.24;100.00;91584.88;5113430;28;20435;-91
2020/12/12 11:40:56;;;;;;;;;;;;;;;4.25;100.00;91588.97;5112883;28;19932;-90
2020/12/12 11:43:48;;;;;;;;;;;;;;;4.32;100.00;91592.25;5112764;28;19924;-90
2020/12/12 11:46:27;;;;;;;;;;;;;;;4.37;100.00;91589.84;5112700;28;19924;-90
2020/12/12 11:48:54;;;;;;;;;;;;;;;4.45;100.00;91595.63;5112556;28;19949;-92
2020/12/12 11:51:20;;;;;;;;;;;;;;;4.47;100.00;91591.09;5112761;28;19924;-89
2020/12/12 11:53:46;;;;;;;;;;;;;;;4.48;100.00;91593.44;5112311;28;19927;-90
2020/12/12 11:56:16;;;;;;;;;;;;;;;4.43;100.00;91595.84;5112485;28;19931;-91
2020/12/12 11:58:42;;;;;;;;;;;;;;;4.54;100.00;91597.66;5112577;28;19925;-89
2020/12/12 12:01:08;;;;;;;;;;;;;;;4.59;99.92;91599.59;5112363;28;20303;-90
2020/12/12 12:03:35;;;;;;;;;;;;;;;4.62;100.00;91599.16;5114005;28;19924;-91
2020/12/12 12:06:02;;;;;;;;;;;;;;;4.69;100.00;91604.16;5112528;28;19924;-90
2020/12/12 12:08:33;;;;;;;;;;;;;;;4.77;99.39;91608.19;5112327;28;19924;-91
2020/12/12 12:11:14;;;;;;;;;;;;;;;4.84;98.76;91603.78;5111934;28;20362;-92
2020/12/12 12:13:41;;;;;;;;;;;;;;;4.90;98.88;91604.69;5111765;28;19950;-94
2020/12/12 12:16:08;;;;;;;;;;;;;;;4.91;98.43;91611.34;5111901;28;20366;-92
2020/12/12 12:18:34;;;;;;;;;;;;;;;4.95;98.88;91604.81;5112088;28;19924;-92
2020/12/12 12:21:00;;;;;;;;;;;;;;;4.99;98.01;91611.06;5111749;28;19923;-91
2020/12/12 12:23:27;;;;;;;;;;;;;;;4.88;99.29;91601.59;5111989;28;19949;-92
2020/12/12 12:25:53;;;;;;;;;;;;;;;4.83;98.83;91597.16;5111832;28;19969;-92
2020/12/12 12:28:20;;;;;;;;;;;;;;;4.91;99.41;91604.50;5111598;28;19924;-91
2020/12/12 12:30:47;;;;;;;;;;;;;;;4.73;98.76;91595.13;5112001;28;19928;-91
2020/12/12 12:33:14;;;;;;;;;;;;;;;4.79;99.39;91599.38;5111820;28;19928;-90
2020/12/12 12:35:40;;;;;;;;;;;;;;;4.55;100.00;91604.31;5132384;27;20422;-91
2020/12/12 12:38:06;;;;;;;;;;;;;;;4.72;100.00;91610.59;5132409;28;20292;-91
2020/12/12 12:40:32;;;;;;;;;;;;;;;4.84;100.00;91615.72;5132552;28;20468;-92
2020/12/12 12:42:58;;;;;;;;;;;;;;;4.80;100.00;91610.28;5132055;28;20374;-93
2020/12/12 12:45:25;;;;;;;;;;;;;;;4.82;100.00;91614.19;5132033;28;20350;-92
2020/12/12 12:47:52;;;;;;;;;;;;;;;4.89;100.00;91608.22;5132488;27;19927;-91
2020/12/12 12:50:18;;;;;;;;;;;;;;;4.94;99.24;91618.56;5132643;28;20023;-92
2020/12/12 12:52:44;;;;;;;;;;;;;;;4.99;99.38;91617.94;5131911;28;19927;-91
2020/12/12 12:55:11;;;;;;;;;;;;;;;5.05;99.44;91617.81;5132072;28;19924;-92
2020/12/12 12:57:38;;;;;;;;;;;;;;;5.15;99.61;91622.41;5131720;28;20381;-91
2020/12/12 13:00:04;;;;;;;;;;;;;;;5.28;100.00;91624.00;5111651;28;19977;-91
2020/12/12 13:02:30;;;;;;;;;;;;;;;5.33;99.88;91619.03;5111753;28;20355;-90
2020/12/12 13:04:57;;;;;;;;;;;;;;;5.41;99.01;91627.38;5111696;28;19927;-91